createdAt,value
2017-07-25T00:01:00.292Z,0
2017-07-25T00:02:01.654Z,0
2017-07-25T00:03:23.184Z,0
2017-07-25T00:04:24.618Z,0
2017-07-25T00:05:46.223Z,0
2017-07-25T00:06:47.576Z,0
2017-07-25T00:08:09.115Z,0
2017-07-25T00:09:10.501Z,0
2017-07-25T00:10:32.018Z,0
2017-07-25T00:11:33.417Z,0
2017-07-25T00:12:55.016Z,0
2017-07-25T00:13:56.421Z,0
2017-07-25T00:15:17.954Z,0
2017-07-25T00:16:19.314Z,0
2017-07-25T00:17:40.875Z,0
2017-07-25T00:18:42.255Z,0
2017-07-25T00:20:03.788Z,0
2017-07-25T00:21:05.147Z,0
2017-07-25T00:22:26.663Z,0
2017-07-25T00:23:28.112Z,0
2017-07-25T00:24:49.706Z,0
2017-07-25T00:25:51.064Z,0
2017-07-25T00:27:12.577Z,0
2017-07-25T00:28:13.939Z,0
2017-07-25T00:29:35.569Z,0
2017-07-25T00:30:37.043Z,0
2017-07-25T00:31:58.549Z,0
2017-07-25T00:32:59.911Z,0
2017-07-25T00:34:21.441Z,0
2017-07-25T00:35:22.802Z,0
2017-07-25T00:36:44.314Z,0
2017-07-25T00:37:45.675Z,0
2017-07-25T00:39:07.315Z,0
2017-07-25T00:40:08.746Z,0
2017-07-25T00:41:30.363Z,0
2017-07-25T00:42:31.721Z,0
2017-07-25T00:43:53.259Z,0
2017-07-25T00:44:54.619Z,0
2017-07-25T00:46:16.130Z,0
2017-07-25T00:47:17.570Z,0
2017-07-25T00:48:39.102Z,0
2017-07-25T00:49:40.462Z,0
2017-07-25T00:51:01.978Z,0
2017-07-25T00:52:03.349Z,0
2017-07-25T00:53:24.880Z,0
2017-07-25T00:54:26.243Z,0
2017-07-25T00:55:47.782Z,0
2017-07-25T00:56:49.139Z,0
2017-07-25T00:58:10.696Z,0
2017-07-25T00:59:12.117Z,0
2017-07-25T01:00:33.658Z,0
2017-07-25T01:01:35.022Z,0
2017-07-25T01:02:56.533Z,0
2017-07-25T01:03:57.895Z,0
2017-07-25T01:05:19.492Z,0
2017-07-25T01:06:20.883Z,0
2017-07-25T01:07:42.382Z,0
2017-07-25T01:08:43.737Z,0
2017-07-25T01:10:05.275Z,0
2017-07-25T01:11:06.631Z,0
2017-07-25T01:12:28.219Z,0
2017-07-25T01:13:29.585Z,0
2017-07-25T01:14:51.137Z,0
2017-07-25T01:15:52.496Z,0
2017-07-25T01:17:14.078Z,0
2017-07-25T01:18:15.435Z,0
2017-07-25T01:19:36.974Z,0
2017-07-25T01:20:38.333Z,0
2017-07-25T01:21:59.842Z,0
2017-07-25T01:23:01.205Z,0
2017-07-25T01:24:22.736Z,0
2017-07-25T01:25:24.096Z,0
2017-07-25T01:26:45.609Z,0
2017-07-25T01:27:46.970Z,0
2017-07-25T01:29:08.503Z,0
2017-07-25T01:30:09.864Z,0
2017-07-25T01:31:31.378Z,0
2017-07-25T01:32:32.741Z,0
2017-07-25T01:33:54.275Z,0
2017-07-25T01:34:55.634Z,0
2017-07-25T01:36:17.148Z,0
2017-07-25T01:37:18.510Z,0
2017-07-25T01:38:40.044Z,0
2017-07-25T01:39:41.404Z,0
2017-07-25T01:41:02.919Z,0
2017-07-25T01:42:04.279Z,0
2017-07-25T01:43:25.795Z,0
2017-07-25T01:44:27.155Z,0
2017-07-25T01:45:49.010Z,0
2017-07-25T01:46:50.506Z,0
2017-07-25T01:48:12.215Z,0
2017-07-25T01:49:13.597Z,0
2017-07-25T01:50:35.207Z,0
2017-07-25T01:51:37.919Z,0
2017-07-25T01:52:59.435Z,0
2017-07-25T01:54:00.800Z,0
2017-07-25T01:55:22.479Z,0
2017-07-25T01:56:23.839Z,0
2017-07-25T01:57:45.352Z,0
2017-07-25T01:58:46.712Z,0
2017-07-25T02:00:08.244Z,0
2017-07-25T02:01:09.602Z,0
2017-07-25T02:02:31.118Z,0
2017-07-25T02:03:32.488Z,0
2017-07-25T02:04:54.020Z,0
2017-07-25T02:05:55.392Z,0
2017-07-25T02:07:16.907Z,0
2017-07-25T02:08:18.268Z,0
2017-07-25T02:09:39.797Z,0
2017-07-25T02:10:41.158Z,0
2017-07-25T02:12:02.668Z,0
2017-07-25T02:13:04.028Z,0
2017-07-25T02:14:25.564Z,0
2017-07-25T02:15:26.922Z,0
2017-07-25T02:16:48.435Z,0
2017-07-25T02:17:49.795Z,0
2017-07-25T02:19:11.332Z,0
2017-07-25T02:20:12.691Z,0
2017-07-25T02:21:34.207Z,0
2017-07-25T02:22:35.567Z,0
2017-07-25T02:23:57.081Z,0
2017-07-25T02:24:58.442Z,0
2017-07-25T02:26:19.978Z,0
2017-07-25T02:27:21.409Z,0
2017-07-25T02:28:42.922Z,0
2017-07-25T02:29:44.286Z,0
2017-07-25T02:31:05.819Z,0
2017-07-25T02:32:07.198Z,0
2017-07-25T02:33:28.713Z,0
2017-07-25T02:34:30.068Z,0
2017-07-25T02:35:51.598Z,0
2017-07-25T02:36:53.010Z,0
2017-07-25T02:38:14.565Z,0
2017-07-25T02:39:15.967Z,0
2017-07-25T02:40:37.496Z,0
2017-07-25T02:41:38.858Z,0
2017-07-25T02:43:00.382Z,0
2017-07-25T02:44:01.741Z,0
2017-07-25T02:45:23.270Z,0
2017-07-25T02:46:24.630Z,0
2017-07-25T02:47:46.148Z,0
2017-07-25T02:48:47.509Z,0
2017-07-25T02:50:09.040Z,0
2017-07-25T02:51:10.401Z,0
2017-07-25T02:52:31.920Z,0
2017-07-25T02:53:33.275Z,0
2017-07-25T02:54:54.805Z,0
2017-07-25T02:55:56.165Z,0
2017-07-25T02:57:17.678Z,0
2017-07-25T02:58:19.040Z,0
2017-07-25T02:59:40.574Z,0
2017-07-25T03:00:41.931Z,0
2017-07-25T03:02:03.450Z,0
2017-07-25T03:03:04.808Z,0
2017-07-25T03:04:26.343Z,0
2017-07-25T03:05:27.704Z,0
2017-07-25T03:06:49.226Z,0
2017-07-25T03:07:50.588Z,0
2017-07-25T03:09:12.103Z,0
2017-07-25T03:10:13.463Z,0
2017-07-25T03:11:34.999Z,0
2017-07-25T03:12:36.357Z,0
2017-07-25T03:13:57.873Z,0
2017-07-25T03:14:59.234Z,0
2017-07-25T03:16:20.767Z,0
2017-07-25T03:17:22.125Z,0
2017-07-25T03:18:43.642Z,0
2017-07-25T03:19:45.003Z,0
2017-07-25T03:21:06.533Z,0
2017-07-25T03:22:07.892Z,0
2017-07-25T03:23:29.412Z,0
2017-07-25T03:24:30.768Z,0
2017-07-25T03:25:52.300Z,0
2017-07-25T03:26:53.661Z,0
2017-07-25T03:28:15.182Z,0
2017-07-25T03:29:16.545Z,0
2017-07-25T03:30:38.084Z,0
2017-07-25T03:31:39.442Z,0
2017-07-25T03:33:00.960Z,0
2017-07-25T03:34:02.334Z,0
2017-07-25T03:35:23.867Z,0
2017-07-25T03:36:25.227Z,0
2017-07-25T03:37:46.743Z,0
2017-07-25T03:38:48.104Z,0
2017-07-25T03:40:09.639Z,0
2017-07-25T03:41:10.997Z,0
2017-07-25T03:42:32.513Z,0
2017-07-25T03:43:33.875Z,0
2017-07-25T03:44:55.409Z,0
2017-07-25T03:45:56.769Z,0
2017-07-25T03:47:18.285Z,0
2017-07-25T03:48:19.646Z,0
2017-07-25T03:49:41.179Z,0
2017-07-25T03:50:42.539Z,0
2017-07-25T03:52:04.054Z,0
2017-07-25T03:53:05.418Z,0
2017-07-25T03:54:26.929Z,0
2017-07-25T03:55:28.291Z,0
2017-07-25T03:56:49.825Z,0
2017-07-25T03:57:51.186Z,0
2017-07-25T03:59:12.701Z,0
2017-07-25T04:00:14.063Z,0
2017-07-25T04:01:35.594Z,0
2017-07-25T04:02:36.956Z,0
2017-07-25T04:03:58.478Z,0
2017-07-25T04:04:59.837Z,0
2017-07-25T04:06:21.374Z,5
2017-07-25T04:07:22.733Z,5
2017-07-25T04:08:44.250Z,5
2017-07-25T04:09:45.613Z,5
2017-07-25T04:11:07.144Z,5
2017-07-25T04:12:08.506Z,5
2017-07-25T04:13:30.156Z,11
2017-07-25T04:14:31.518Z,11
2017-07-25T04:15:53.051Z,5
2017-07-25T04:16:54.415Z,5
2017-07-25T04:18:15.931Z,11
2017-07-25T04:19:17.294Z,11
2017-07-25T04:20:38.849Z,16
2017-07-25T04:21:40.213Z,16
2017-07-25T04:23:01.732Z,16
2017-07-25T04:24:03.093Z,16
2017-07-25T04:25:24.627Z,22
2017-07-25T04:26:25.989Z,22
2017-07-25T04:27:47.504Z,22
2017-07-25T04:28:48.868Z,22
2017-07-25T04:30:10.400Z,22
2017-07-25T04:31:11.763Z,28
2017-07-25T04:32:33.281Z,28
2017-07-25T04:33:34.643Z,28
2017-07-25T04:34:56.174Z,28
2017-07-25T04:35:57.555Z,28
2017-07-25T04:37:19.075Z,28
2017-07-25T04:38:20.437Z,28
2017-07-25T04:39:41.952Z,28
2017-07-25T04:40:43.315Z,28
2017-07-25T04:42:04.849Z,28
2017-07-25T04:43:06.210Z,28
2017-07-25T04:44:27.726Z,28
2017-07-25T04:45:29.088Z,28
2017-07-25T04:46:50.620Z,28
2017-07-25T04:47:51.983Z,28
2017-07-25T04:49:13.499Z,28
2017-07-25T04:50:14.863Z,28
2017-07-25T04:51:36.397Z,28
2017-07-25T04:52:37.763Z,22
2017-07-25T04:53:59.275Z,22
2017-07-25T04:55:00.639Z,16
2017-07-25T04:56:22.176Z,22
2017-07-25T04:57:23.540Z,22
2017-07-25T04:58:45.053Z,22
2017-07-25T04:59:46.417Z,22
2017-07-25T05:01:07.956Z,28
2017-07-25T05:02:09.322Z,33
2017-07-25T05:03:30.835Z,39
2017-07-25T05:04:32.199Z,39
2017-07-25T05:05:53.732Z,39
2017-07-25T05:06:55.094Z,39
2017-07-25T05:08:16.618Z,28
2017-07-25T05:09:17.979Z,22
2017-07-25T05:10:39.515Z,22
2017-07-25T05:11:40.879Z,22
2017-07-25T05:13:02.399Z,22
2017-07-25T05:14:03.759Z,28
2017-07-25T05:15:25.295Z,33
2017-07-25T05:16:26.658Z,33
2017-07-25T05:17:48.177Z,39
2017-07-25T05:18:49.539Z,39
2017-07-25T05:20:11.084Z,39
2017-07-25T05:21:12.440Z,45
2017-07-25T05:22:33.958Z,45
2017-07-25T05:23:35.322Z,45
2017-07-25T05:24:56.838Z,39
2017-07-25T05:25:58.197Z,39
2017-07-25T05:27:19.743Z,39
2017-07-25T05:28:21.107Z,39
2017-07-25T05:29:42.627Z,33
2017-07-25T05:30:43.995Z,33
2017-07-25T05:32:05.544Z,33
2017-07-25T05:33:06.908Z,39
2017-07-25T05:34:28.423Z,45
2017-07-25T05:35:29.788Z,50
2017-07-25T05:36:51.328Z,50
2017-07-25T05:37:52.692Z,61
2017-07-25T05:39:14.210Z,61
2017-07-25T05:40:15.574Z,56
2017-07-25T05:41:37.127Z,50
2017-07-25T05:42:38.491Z,45
2017-07-25T05:44:00.010Z,45
2017-07-25T05:45:01.374Z,45
2017-07-25T05:46:22.910Z,33
2017-07-25T05:47:24.281Z,33
2017-07-25T05:48:45.786Z,28
2017-07-25T05:49:47.152Z,22
2017-07-25T05:51:08.894Z,22
2017-07-25T05:52:10.229Z,28
2017-07-25T05:53:31.795Z,28
2017-07-25T05:54:33.157Z,28
2017-07-25T05:55:54.699Z,28
2017-07-25T05:56:56.059Z,33
2017-07-25T05:58:17.578Z,33
2017-07-25T05:59:18.942Z,33
2017-07-25T06:00:40.479Z,50
2017-07-25T06:01:41.842Z,50
2017-07-25T06:03:03.361Z,73
2017-07-25T06:04:04.727Z,67
2017-07-25T06:05:26.246Z,73
2017-07-25T06:06:27.609Z,84
2017-07-25T06:07:49.146Z,101
2017-07-25T06:08:50.510Z,106
2017-07-25T06:10:12.032Z,95
2017-07-25T06:11:13.394Z,84
2017-07-25T06:12:34.928Z,84
2017-07-25T06:13:36.292Z,95
2017-07-25T06:14:57.816Z,101
2017-07-25T06:15:59.198Z,90
2017-07-25T06:17:20.720Z,61
2017-07-25T06:18:22.085Z,61
2017-07-25T06:19:43.602Z,61
2017-07-25T06:20:44.968Z,50
2017-07-25T06:22:06.503Z,39
2017-07-25T06:23:07.867Z,33
2017-07-25T06:24:29.389Z,33
2017-07-25T06:25:30.753Z,39
2017-07-25T06:26:52.292Z,67
2017-07-25T06:27:53.652Z,67
2017-07-25T06:29:15.174Z,56
2017-07-25T06:30:16.534Z,45
2017-07-25T06:31:38.069Z,33
2017-07-25T06:32:39.432Z,39
2017-07-25T06:34:00.952Z,56
2017-07-25T06:35:02.317Z,67
2017-07-25T06:36:23.856Z,90
2017-07-25T06:37:25.223Z,95
2017-07-25T06:38:46.738Z,90
2017-07-25T06:39:48.103Z,90
2017-07-25T06:41:09.640Z,73
2017-07-25T06:42:11.002Z,78
2017-07-25T06:43:32.521Z,90
2017-07-25T06:44:33.904Z,67
2017-07-25T06:45:55.458Z,61
2017-07-25T06:46:56.816Z,73
2017-07-25T06:48:18.335Z,90
2017-07-25T06:49:19.700Z,101
2017-07-25T06:50:41.218Z,90
2017-07-25T06:51:42.581Z,90
2017-07-25T06:53:04.119Z,90
2017-07-25T06:54:05.482Z,90
2017-07-25T06:55:26.999Z,101
2017-07-25T06:56:28.361Z,90
2017-07-25T06:57:49.897Z,90
2017-07-25T06:58:51.262Z,90
2017-07-25T07:00:12.788Z,78
2017-07-25T07:01:14.144Z,73
2017-07-25T07:02:35.680Z,78
2017-07-25T07:03:37.043Z,84
2017-07-25T07:04:58.565Z,135
2017-07-25T07:05:59.927Z,135
2017-07-25T07:07:21.463Z,123
2017-07-25T07:08:22.828Z,106
2017-07-25T07:09:44.350Z,101
2017-07-25T07:10:45.713Z,73
2017-07-25T07:12:07.247Z,56
2017-07-25T07:13:08.612Z,56
2017-07-25T07:14:30.130Z,95
2017-07-25T07:15:31.496Z,106
2017-07-25T07:16:53.091Z,95
2017-07-25T07:17:54.462Z,106
2017-07-25T07:19:15.980Z,118
2017-07-25T07:20:17.345Z,101
2017-07-25T07:21:38.885Z,90
2017-07-25T07:22:40.250Z,67
2017-07-25T07:24:01.764Z,84
2017-07-25T07:25:03.130Z,123
2017-07-25T07:26:24.677Z,123
2017-07-25T07:27:26.034Z,140
2017-07-25T07:28:47.556Z,140
2017-07-25T07:29:48.919Z,118
2017-07-25T07:31:10.456Z,101
2017-07-25T07:32:11.819Z,101
2017-07-25T07:33:33.359Z,106
2017-07-25T07:34:34.725Z,129
2017-07-25T07:35:56.244Z,140
2017-07-25T07:36:57.608Z,135
2017-07-25T07:38:19.146Z,101
2017-07-25T07:39:20.509Z,78
2017-07-25T07:40:42.159Z,78
2017-07-25T07:41:43.524Z,106
2017-07-25T07:43:05.059Z,73
2017-07-25T07:44:06.421Z,61
2017-07-25T07:45:27.939Z,135
2017-07-25T07:46:29.303Z,157
2017-07-25T07:47:50.840Z,151
2017-07-25T07:48:52.208Z,185
2017-07-25T07:50:13.723Z,208
2017-07-25T07:51:15.086Z,191
2017-07-25T07:52:36.621Z,202
2017-07-25T07:53:37.987Z,241
2017-07-25T07:54:59.503Z,230
2017-07-25T07:56:00.867Z,230
2017-07-25T07:57:22.406Z,208
2017-07-25T07:58:23.771Z,213
2017-07-25T07:59:45.292Z,208
2017-07-25T08:00:46.655Z,185
2017-07-25T08:02:08.193Z,168
2017-07-25T08:03:09.554Z,168
2017-07-25T08:04:31.074Z,208
2017-07-25T08:05:32.440Z,247
2017-07-25T08:06:53.979Z,258
2017-07-25T08:07:55.343Z,253
2017-07-25T08:09:16.863Z,236
2017-07-25T08:10:18.229Z,225
2017-07-25T08:11:39.814Z,219
2017-07-25T08:12:41.182Z,219
2017-07-25T08:14:02.701Z,225
2017-07-25T08:15:04.066Z,225
2017-07-25T08:16:25.584Z,230
2017-07-25T08:17:26.950Z,230
2017-07-25T08:18:48.487Z,236
2017-07-25T08:19:49.852Z,241
2017-07-25T08:21:11.372Z,247
2017-07-25T08:22:12.736Z,247
2017-07-25T08:23:34.275Z,241
2017-07-25T08:24:35.639Z,241
2017-07-25T08:25:57.159Z,241
2017-07-25T08:26:58.523Z,241
2017-07-25T08:28:20.059Z,241
2017-07-25T08:29:21.426Z,225
2017-07-25T08:30:42.945Z,236
2017-07-25T08:31:44.313Z,241
2017-07-25T08:33:05.852Z,275
2017-07-25T08:34:07.218Z,309
2017-07-25T08:35:28.735Z,292
2017-07-25T08:36:30.103Z,303
2017-07-25T08:37:51.638Z,270
2017-07-25T08:38:53.004Z,337
2017-07-25T08:40:14.524Z,320
2017-07-25T08:41:15.891Z,326
2017-07-25T08:42:37.429Z,315
2017-07-25T08:43:38.793Z,275
2017-07-25T08:45:00.311Z,286
2017-07-25T08:46:01.678Z,281
2017-07-25T08:47:23.467Z,320
2017-07-25T08:48:24.838Z,292
2017-07-25T08:49:46.360Z,270
2017-07-25T08:50:47.724Z,258
2017-07-25T08:52:09.262Z,281
2017-07-25T08:53:10.632Z,247
2017-07-25T08:54:32.148Z,275
2017-07-25T08:55:33.514Z,281
2017-07-25T08:56:55.032Z,331
2017-07-25T08:57:56.399Z,337
2017-07-25T08:59:17.938Z,320
2017-07-25T09:00:19.304Z,337
2017-07-25T09:01:40.826Z,331
2017-07-25T09:02:42.200Z,399
2017-07-25T09:04:03.728Z,438
2017-07-25T09:05:05.095Z,433
2017-07-25T09:06:26.613Z,427
2017-07-25T09:07:27.980Z,421
2017-07-25T09:08:49.521Z,438
2017-07-25T09:09:50.888Z,382
2017-07-25T09:11:12.409Z,309
2017-07-25T09:12:13.802Z,331
2017-07-25T09:13:35.315Z,303
2017-07-25T09:14:36.684Z,286
2017-07-25T09:15:59.201Z,371
2017-07-25T09:17:00.567Z,326
2017-07-25T09:18:22.111Z,298
2017-07-25T09:19:23.477Z,331
2017-07-25T09:20:45.004Z,315
2017-07-25T09:21:46.371Z,331
2017-07-25T09:23:07.915Z,264
2017-07-25T09:24:09.280Z,309
2017-07-25T09:25:30.801Z,343
2017-07-25T09:26:32.171Z,348
2017-07-25T09:27:53.709Z,376
2017-07-25T09:28:55.076Z,354
2017-07-25T09:30:16.602Z,326
2017-07-25T09:31:17.966Z,320
2017-07-25T09:32:39.506Z,337
2017-07-25T09:33:40.870Z,354
2017-07-25T09:35:02.390Z,320
2017-07-25T09:36:03.760Z,331
2017-07-25T09:37:25.298Z,315
2017-07-25T09:38:26.665Z,354
2017-07-25T09:39:48.191Z,331
2017-07-25T09:40:49.905Z,320
2017-07-25T09:42:11.448Z,354
2017-07-25T09:43:12.902Z,371
2017-07-25T09:44:34.441Z,337
2017-07-25T09:45:35.809Z,382
2017-07-25T09:46:57.901Z,371
2017-07-25T09:47:59.464Z,376
2017-07-25T09:49:21.016Z,365
2017-07-25T09:50:22.381Z,360
2017-07-25T09:51:43.904Z,354
2017-07-25T09:52:45.277Z,365
2017-07-25T09:54:06.977Z,399
2017-07-25T09:55:08.345Z,444
2017-07-25T09:56:29.871Z,444
2017-07-25T09:57:31.321Z,523
2017-07-25T09:58:52.880Z,528
2017-07-25T09:59:54.260Z,540
2017-07-25T10:01:15.784Z,551
2017-07-25T10:02:17.152Z,545
2017-07-25T10:03:39.115Z,585
2017-07-25T10:04:40.494Z,568
2017-07-25T10:06:02.021Z,545
2017-07-25T10:07:03.387Z,556
2017-07-25T10:08:24.931Z,506
2017-07-25T10:09:26.299Z,472
2017-07-25T10:10:47.821Z,438
2017-07-25T10:11:49.189Z,450
2017-07-25T10:13:10.780Z,450
2017-07-25T10:14:12.144Z,444
2017-07-25T10:15:33.845Z,421
2017-07-25T10:16:35.211Z,427
2017-07-25T10:17:56.766Z,461
2017-07-25T10:18:58.141Z,466
2017-07-25T10:20:19.659Z,405
2017-07-25T10:21:21.031Z,410
2017-07-25T10:22:42.567Z,388
2017-07-25T10:23:43.937Z,444
2017-07-25T10:25:05.533Z,382
2017-07-25T10:26:06.905Z,348
2017-07-25T10:27:28.495Z,399
2017-07-25T10:28:29.864Z,360
2017-07-25T10:29:51.459Z,399
2017-07-25T10:30:52.828Z,376
2017-07-25T10:32:14.350Z,286
2017-07-25T10:33:15.748Z,281
2017-07-25T10:34:37.303Z,247
2017-07-25T10:35:38.670Z,275
2017-07-25T10:37:00.197Z,331
2017-07-25T10:38:01.564Z,303
2017-07-25T10:39:23.129Z,331
2017-07-25T10:40:24.497Z,281
2017-07-25T10:41:46.020Z,360
2017-07-25T10:42:47.387Z,326
2017-07-25T10:44:08.927Z,388
2017-07-25T10:45:10.295Z,348
2017-07-25T10:46:31.818Z,309
2017-07-25T10:47:33.186Z,286
2017-07-25T10:48:54.726Z,326
2017-07-25T10:49:56.092Z,331
2017-07-25T10:51:17.614Z,281
2017-07-25T10:52:18.984Z,292
2017-07-25T10:53:40.521Z,365
2017-07-25T10:54:41.888Z,376
2017-07-25T10:56:03.416Z,416
2017-07-25T10:57:04.784Z,461
2017-07-25T10:58:26.326Z,472
2017-07-25T10:59:27.694Z,438
2017-07-25T11:00:49.217Z,382
2017-07-25T11:01:50.586Z,371
2017-07-25T11:03:12.128Z,326
2017-07-25T11:04:13.495Z,343
2017-07-25T11:05:35.020Z,264
2017-07-25T11:06:36.387Z,185
2017-07-25T11:07:57.930Z,225
2017-07-25T11:08:59.298Z,202
2017-07-25T11:10:20.822Z,196
2017-07-25T11:11:22.192Z,264
2017-07-25T11:12:43.714Z,219
2017-07-25T11:13:45.080Z,264
2017-07-25T11:15:07.617Z,270
2017-07-25T11:16:08.985Z,264
2017-07-25T11:17:30.508Z,264
2017-07-25T11:18:31.877Z,219
2017-07-25T11:19:53.419Z,174
2017-07-25T11:20:54.786Z,303
2017-07-25T11:22:16.307Z,405
2017-07-25T11:23:17.676Z,371
2017-07-25T11:24:39.219Z,337
2017-07-25T11:25:40.588Z,303
2017-07-25T11:27:02.107Z,264
2017-07-25T11:28:03.949Z,331
2017-07-25T11:29:25.487Z,438
2017-07-25T11:30:26.858Z,511
2017-07-25T11:31:48.385Z,528
2017-07-25T11:32:49.756Z,517
2017-07-25T11:34:11.301Z,523
2017-07-25T11:35:12.669Z,534
2017-07-25T11:36:34.193Z,534
2017-07-25T11:37:35.561Z,551
2017-07-25T11:38:57.107Z,562
2017-07-25T11:39:58.729Z,500
2017-07-25T11:41:20.211Z,568
2017-07-25T11:42:21.850Z,556
2017-07-25T11:43:43.391Z,506
2017-07-25T11:44:44.761Z,461
2017-07-25T11:46:06.283Z,472
2017-07-25T11:47:07.651Z,506
2017-07-25T11:48:29.204Z,528
2017-07-25T11:49:30.575Z,528
2017-07-25T11:50:52.460Z,461
2017-07-25T11:51:53.836Z,416
2017-07-25T11:53:15.375Z,500
2017-07-25T11:54:16.758Z,495
2017-07-25T11:55:38.268Z,455
2017-07-25T11:56:39.638Z,416
2017-07-25T11:58:01.156Z,309
2017-07-25T11:59:02.526Z,309
2017-07-25T12:00:24.073Z,309
2017-07-25T12:01:25.437Z,343
2017-07-25T12:02:46.963Z,270
2017-07-25T12:03:49.410Z,236
2017-07-25T12:05:10.928Z,258
2017-07-25T12:06:12.295Z,241
2017-07-25T12:07:33.817Z,191
2017-07-25T12:08:35.186Z,151
2017-07-25T12:09:56.727Z,129
2017-07-25T12:10:58.095Z,112
2017-07-25T12:12:19.615Z,73
2017-07-25T12:13:20.985Z,50
2017-07-25T12:14:42.524Z,56
2017-07-25T12:15:43.892Z,67
2017-07-25T12:17:05.415Z,146
2017-07-25T12:18:06.780Z,208
2017-07-25T12:19:28.319Z,331
2017-07-25T12:20:29.693Z,528
2017-07-25T12:21:51.214Z,579
2017-07-25T12:22:52.583Z,562
2017-07-25T12:24:14.124Z,568
2017-07-25T12:25:15.492Z,545
2017-07-25T12:26:37.019Z,506
2017-07-25T12:27:38.385Z,511
2017-07-25T12:28:59.931Z,523
2017-07-25T12:30:01.295Z,573
2017-07-25T12:31:22.831Z,562
2017-07-25T12:32:24.201Z,551
2017-07-25T12:33:45.744Z,489
2017-07-25T12:34:47.115Z,427
2017-07-25T12:36:08.634Z,320
2017-07-25T12:37:10.003Z,253
2017-07-25T12:38:31.571Z,292
2017-07-25T12:39:32.938Z,258
2017-07-25T12:40:54.466Z,236
2017-07-25T12:41:55.834Z,253
2017-07-25T12:43:17.355Z,286
2017-07-25T12:44:18.722Z,275
2017-07-25T12:45:40.273Z,219
2017-07-25T12:46:41.641Z,213
2017-07-25T12:48:03.162Z,196
2017-07-25T12:49:04.532Z,191
2017-07-25T12:50:26.176Z,208
2017-07-25T12:51:27.551Z,213
2017-07-25T12:52:49.069Z,191
2017-07-25T12:53:50.437Z,208
2017-07-25T12:55:11.982Z,219
2017-07-25T12:56:13.350Z,225
2017-07-25T12:57:34.868Z,253
2017-07-25T12:58:36.236Z,264
2017-07-25T12:59:57.780Z,298
2017-07-25T13:00:59.145Z,331
2017-07-25T13:02:20.668Z,365
2017-07-25T13:03:22.037Z,382
2017-07-25T13:04:43.580Z,354
2017-07-25T13:05:44.947Z,326
2017-07-25T13:07:06.469Z,281
2017-07-25T13:08:07.838Z,281
2017-07-25T13:09:29.381Z,343
2017-07-25T13:10:30.745Z,354
2017-07-25T13:11:52.268Z,371
2017-07-25T13:12:53.638Z,405
2017-07-25T13:14:15.180Z,393
2017-07-25T13:15:16.546Z,354
2017-07-25T13:16:38.074Z,292
2017-07-25T13:17:39.441Z,286
2017-07-25T13:19:00.982Z,331
2017-07-25T13:20:02.350Z,365
2017-07-25T13:21:23.873Z,405
2017-07-25T13:22:25.242Z,433
2017-07-25T13:23:46.766Z,438
2017-07-25T13:24:48.137Z,461
2017-07-25T13:26:09.679Z,495
2017-07-25T13:27:11.050Z,517
2017-07-25T13:28:32.573Z,523
2017-07-25T13:29:33.942Z,523
2017-07-25T13:30:55.486Z,523
2017-07-25T13:31:56.855Z,511
2017-07-25T13:33:18.382Z,523
2017-07-25T13:34:19.750Z,528
2017-07-25T13:35:41.296Z,545
2017-07-25T13:36:42.662Z,540
2017-07-25T13:38:04.189Z,511
2017-07-25T13:39:05.557Z,534
2017-07-25T13:40:27.101Z,540
2017-07-25T13:41:28.473Z,556
2017-07-25T13:42:49.997Z,551
2017-07-25T13:43:51.367Z,483
2017-07-25T13:45:12.916Z,489
2017-07-25T13:46:14.287Z,528
2017-07-25T13:47:35.818Z,540
2017-07-25T13:48:37.182Z,540
2017-07-25T13:49:58.726Z,540
2017-07-25T13:51:00.097Z,528
2017-07-25T13:52:21.619Z,506
2017-07-25T13:53:22.991Z,495
2017-07-25T13:54:44.536Z,438
2017-07-25T13:55:45.902Z,421
2017-07-25T13:57:07.424Z,444
2017-07-25T13:58:08.798Z,421
2017-07-25T13:59:30.343Z,281
2017-07-25T14:00:31.708Z,208
2017-07-25T14:01:53.238Z,230
2017-07-25T14:02:54.610Z,230
2017-07-25T14:04:16.151Z,236
2017-07-25T14:05:17.521Z,253
2017-07-25T14:06:39.047Z,135
2017-07-25T14:07:40.418Z,90
2017-07-25T14:09:01.938Z,61
2017-07-25T14:10:03.307Z,67
2017-07-25T14:11:24.855Z,90
2017-07-25T14:12:26.223Z,73
2017-07-25T14:13:47.747Z,84
2017-07-25T14:14:49.117Z,123
2017-07-25T14:16:10.661Z,180
2017-07-25T14:17:12.035Z,241
2017-07-25T14:18:33.553Z,236
2017-07-25T14:19:34.923Z,292
2017-07-25T14:20:56.465Z,326
2017-07-25T14:21:57.831Z,337
2017-07-25T14:23:19.358Z,376
2017-07-25T14:24:20.721Z,388
2017-07-25T14:25:42.262Z,281
2017-07-25T14:26:43.628Z,315
2017-07-25T14:28:05.152Z,371
2017-07-25T14:29:06.519Z,360
2017-07-25T14:30:28.060Z,348
2017-07-25T14:31:29.427Z,348
2017-07-25T14:32:50.958Z,348
2017-07-25T14:33:52.322Z,360
2017-07-25T14:35:13.878Z,399
2017-07-25T14:36:15.232Z,393
2017-07-25T14:37:36.756Z,371
2017-07-25T14:38:38.125Z,354
2017-07-25T14:39:59.670Z,337
2017-07-25T14:41:01.040Z,309
2017-07-25T14:42:22.562Z,286
2017-07-25T14:43:23.931Z,275
2017-07-25T14:44:45.475Z,281
2017-07-25T14:45:46.842Z,281
2017-07-25T14:47:08.533Z,264
2017-07-25T14:48:10.177Z,253
2017-07-25T14:49:31.638Z,241
2017-07-25T14:50:33.034Z,236
2017-07-25T14:51:54.553Z,219
2017-07-25T14:52:55.957Z,185
2017-07-25T14:54:17.648Z,168
2017-07-25T14:55:19.026Z,180
2017-07-25T14:56:40.590Z,208
2017-07-25T14:57:42.010Z,219
2017-07-25T14:59:03.597Z,219
2017-07-25T15:00:05.216Z,196
2017-07-25T15:01:26.771Z,157
2017-07-25T15:02:28.218Z,151
2017-07-25T15:03:49.760Z,151
2017-07-25T15:04:51.131Z,146
2017-07-25T15:06:12.681Z,123
2017-07-25T15:07:14.040Z,101
2017-07-25T15:08:35.560Z,61
2017-07-25T15:09:36.927Z,56
2017-07-25T15:10:58.479Z,33
2017-07-25T15:11:59.851Z,28
2017-07-25T15:13:21.372Z,56
2017-07-25T15:14:22.740Z,73
2017-07-25T15:15:44.277Z,78
2017-07-25T15:16:45.644Z,78
2017-07-25T15:18:07.168Z,84
2017-07-25T15:19:08.535Z,90
2017-07-25T15:20:30.075Z,140
2017-07-25T15:21:31.441Z,191
2017-07-25T15:22:52.962Z,219
2017-07-25T15:23:54.327Z,219
2017-07-25T15:25:15.868Z,208
2017-07-25T15:26:17.232Z,213
2017-07-25T15:27:38.753Z,219
2017-07-25T15:28:40.194Z,236
2017-07-25T15:30:01.815Z,236
2017-07-25T15:31:03.257Z,236
2017-07-25T15:32:24.855Z,225
2017-07-25T15:33:26.226Z,213
2017-07-25T15:34:47.768Z,208
2017-07-25T15:35:49.239Z,202
2017-07-25T15:37:10.760Z,185
2017-07-25T15:38:12.209Z,163
2017-07-25T15:39:33.974Z,174
2017-07-25T15:40:35.343Z,174
2017-07-25T15:41:56.977Z,146
2017-07-25T15:42:58.403Z,112
2017-07-25T15:44:19.925Z,95
2017-07-25T15:45:21.427Z,140
2017-07-25T15:46:42.971Z,185
2017-07-25T15:47:44.335Z,180
2017-07-25T15:49:05.854Z,219
2017-07-25T15:50:07.234Z,264
2017-07-25T15:51:28.779Z,281
2017-07-25T15:52:30.145Z,264
2017-07-25T15:53:51.667Z,191
2017-07-25T15:54:53.032Z,123
2017-07-25T15:56:14.576Z,123
2017-07-25T15:57:15.943Z,123
2017-07-25T15:58:37.463Z,106
2017-07-25T15:59:38.830Z,106
2017-07-25T16:01:00.375Z,151
2017-07-25T16:02:01.742Z,174
2017-07-25T16:03:23.259Z,185
2017-07-25T16:04:24.628Z,202
2017-07-25T16:05:46.186Z,157
2017-07-25T16:06:47.559Z,151
2017-07-25T16:08:09.082Z,185
2017-07-25T16:09:10.447Z,191
2017-07-25T16:10:31.989Z,208
2017-07-25T16:11:33.354Z,213
2017-07-25T16:12:54.876Z,225
2017-07-25T16:13:56.242Z,225
2017-07-25T16:15:17.785Z,202
2017-07-25T16:16:19.150Z,185
2017-07-25T16:17:40.668Z,168
2017-07-25T16:18:42.037Z,163
2017-07-25T16:20:03.574Z,185
2017-07-25T16:21:04.940Z,191
2017-07-25T16:22:26.481Z,191
2017-07-25T16:23:27.829Z,196
2017-07-25T16:24:49.348Z,191
2017-07-25T16:25:50.717Z,129
2017-07-25T16:27:12.256Z,112
2017-07-25T16:28:13.623Z,106
2017-07-25T16:29:35.148Z,146
2017-07-25T16:30:36.517Z,135
2017-07-25T16:31:58.057Z,106
2017-07-25T16:32:59.424Z,101
2017-07-25T16:34:20.945Z,146
2017-07-25T16:35:22.311Z,135
2017-07-25T16:36:43.850Z,129
2017-07-25T16:37:45.217Z,146
2017-07-25T16:39:06.734Z,106
2017-07-25T16:40:08.108Z,112
2017-07-25T16:41:29.658Z,163
2017-07-25T16:42:31.011Z,157
2017-07-25T16:43:52.532Z,151
2017-07-25T16:44:53.898Z,146
2017-07-25T16:46:15.440Z,140
2017-07-25T16:47:16.806Z,135
2017-07-25T16:48:38.326Z,135